Time;durP1;ratioP1;P1;durP2;ratioP2;P2;SDS_P1;SDS_P2;PMS_P1;PMS_P2;Temp;Humidity;BMP_temperature;BMP_pressure;BME280_temperature;BME280_humidity;BME280_pressure;Samples;Min_cycle;Max_cycle;Signal;HPM_P1;HPM_P2
2021/12/23 00:00:56;;;;;;;21.13;13.17;;;-2.20;99.90;;;;;;5037971;28;20455;-76
2021/12/23 00:03:22;;;;;;;29.77;16.33;;;-2.10;99.90;;;;;;5037607;28;20120;-76
2021/12/23 00:05:48;;;;;;;31.17;16.07;;;-2.10;99.90;;;;;;5037649;28;20092;-76
2021/12/23 00:08:13;;;;;;;28.00;14.97;;;-2.10;99.90;;;;;;5037939;28;20072;-76
2021/12/23 00:10:40;;;;;;;23.03;15.00;;;-2.00;99.90;;;;;;5037957;28;20046;-76
2021/12/23 00:13:06;;;;;;;27.47;14.53;;;-2.00;99.90;;;;;;5037617;28;20056;-76
2021/12/23 00:23:25;;;;;;;22.43;13.17;;;-1.90;99.90;;;;;;5037812;28;20092;-74
2021/12/23 00:25:54;;;;;;;21.67;13.53;;;-1.90;99.90;;;;;;5021375;28;20033;-75
2021/12/23 00:28:21;;;;;;;24.77;14.10;;;-1.90;99.90;;;;;;5037673;28;20448;-74
2021/12/23 00:30:46;;;;;;;22.47;13.00;;;-1.90;99.90;;;;;;5004898;28;20122;-75
2021/12/23 00:33:12;;;;;;;24.73;13.83;;;-1.90;99.90;;;;;;5037368;28;20526;-75
2021/12/23 00:35:38;;;;;;;20.17;12.90;;;-1.90;99.90;;;;;;5037411;28;20411;-76
2021/12/23 00:38:12;;;;;;;21.23;13.40;;;-1.90;99.90;;;;;;5037306;28;20446;-75
2021/12/23 00:40:38;;;;;;;21.10;12.60;;;-1.90;99.90;;;;;;5037474;28;20408;-76
2021/12/23 00:43:04;;;;;;;20.70;12.87;;;-1.90;99.90;;;;;;5037629;28;20041;-74
2021/12/23 00:45:30;;;;;;;21.97;13.10;;;-1.90;99.90;;;;;;5037464;28;20052;-76
2021/12/23 00:47:55;;;;;;;20.00;12.20;;;-1.90;99.90;;;;;;5021149;28;20052;-76
2021/12/23 00:50:21;;;;;;;20.20;12.23;;;-1.90;99.90;;;;;;5036082;28;20034;-75
2021/12/23 00:52:55;;;;;;;21.77;13.33;;;-1.90;99.90;;;;;;5017382;28;20155;-75
2021/12/23 00:55:21;;;;;;;19.80;12.27;;;-1.90;99.90;;;;;;5034333;28;20048;-76
2021/12/23 00:57:46;;;;;;;19.07;12.53;;;-1.90;99.90;;;;;;5034027;28;20038;-76
2021/12/23 01:00:20;;;;;;;22.37;13.83;;;-1.90;99.90;;;;;;5017662;28;20504;-76
2021/12/23 01:02:47;;;;;;;22.27;13.50;;;-1.90;99.90;;;;;;5017801;28;20053;-76
2021/12/23 01:05:16;;;;;;;19.23;12.37;;;-1.80;99.90;;;;;;5033915;28;20048;-77
2021/12/23 01:07:42;;;;;;;20.60;13.07;;;-1.80;99.90;;;;;;5017430;28;20134;-77
2021/12/23 01:10:08;;;;;;;20.37;13.77;;;-1.80;99.90;;;;;;5017451;28;20057;-75
2021/12/23 01:12:47;;;;;;;21.23;13.57;;;-1.70;99.90;;;;;;5033876;28;20038;-75
2021/12/23 01:15:27;;;;;;;22.37;13.23;;;-1.70;99.90;;;;;;5034097;28;20463;-77
2021/12/23 01:17:56;;;;;;;22.50;13.77;;;-1.60;99.90;;;;;;5019503;28;20427;-75
2021/12/23 01:20:30;;;;;;;25.17;14.27;;;-1.60;99.90;;;;;;5033696;28;20107;-76
2021/12/23 01:23:01;;;;;;;21.70;13.93;;;-1.50;99.90;;;;;;5017222;28;20038;-75
2021/12/23 01:25:28;;;;;;;23.97;13.80;;;-1.50;99.90;;;;;;5033763;28;20054;-76
2021/12/23 01:27:55;;;;;;;20.53;12.40;;;-1.40;99.90;;;;;;5033898;28;20045;-77
2021/12/23 01:30:22;;;;;;;24.70;13.60;;;-1.50;99.90;;;;;;5033555;28;20091;-75
2021/12/23 01:32:50;;;;;;;22.47;13.50;;;-1.40;99.90;;;;;;5033666;28;20399;-77
2021/12/23 01:35:17;;;;;;;20.40;13.43;;;-1.40;99.90;;;;;;5016833;28;20479;-77
2021/12/23 01:37:43;;;;;;;23.47;13.40;;;-1.40;99.90;;;;;;5016792;28;20080;-77
2021/12/23 01:40:11;;;;;;;21.30;12.43;;;-1.30;99.90;;;;;;5016691;28;20047;-77
2021/12/23 01:42:37;;;;;;;19.97;12.70;;;-1.30;99.90;;;;;;5033331;28;20061;-78
2021/12/23 01:45:13;;;;;;;25.47;13.17;;;-1.20;99.90;;;;;;5017216;28;20495;-77
2021/12/23 01:47:39;;;;;;;21.50;13.73;;;-1.30;99.90;;;;;;5033365;28;20042;-78
2021/12/23 01:50:06;;;;;;;18.20;10.30;;;-1.30;99.90;;;;;;5033220;28;20046;-76
2021/12/23 01:52:32;;;;;;;18.63;11.23;;;-1.30;99.90;;;;;;5016713;28;20049;-77
2021/12/23 01:54:58;;;;;;;31.37;15.03;;;-1.30;99.90;;;;;;5033325;28;20503;-77
2021/12/23 01:57:25;;;;;;;13.40;7.67;;;-1.30;99.90;;;;;;5016728;28;20044;-77
2021/12/23 01:59:51;;;;;;;9.77;5.67;;;-1.20;99.90;;;;;;5016445;28;20045;-77
2021/12/23 02:02:17;;;;;;;17.97;8.50;;;-1.20;99.90;;;;;;5000023;28;20537;-75
2021/12/23 02:04:42;;;;;;;13.60;8.70;;;-1.20;99.90;;;;;;5032979;28;20530;-78
2021/12/23 02:07:08;;;;;;;12.60;9.30;;;-1.20;99.90;;;;;;5033153;28;20450;-75
2021/12/23 02:09:34;;;;;;;17.63;11.67;;;-1.20;99.90;;;;;;5032821;28;20045;-76
2021/12/23 02:12:00;;;;;;;21.83;13.03;;;-1.20;99.90;;;;;;5032817;28;20045;-77
2021/12/23 02:14:25;;;;;;;15.20;9.13;;;-1.20;99.90;;;;;;5032794;28;20041;-75
2021/12/23 02:16:51;;;;;;;19.20;6.30;;;-1.20;99.90;;;;;;5032502;28;20049;-77
2021/12/23 02:19:19;;;;;;;12.63;8.03;;;-1.10;99.90;;;;;;5032884;28;20060;-77
2021/12/23 02:21:47;;;;;;;15.37;7.63;;;-1.10;99.90;;;;;;5015973;28;20098;-75
2021/12/23 02:24:13;;;;;;;12.27;8.03;;;-1.10;99.90;;;;;;5032534;28;20045;-75
2021/12/23 02:26:41;;;;;;;20.97;11.50;;;-1.00;99.90;;;;;;5032486;28;20124;-75
2021/12/23 02:29:08;;;;;;;19.90;12.03;;;-1.00;99.90;;;;;;5032440;28;20079;-74
2021/12/23 02:31:34;;;;;;;20.33;10.00;;;-1.00;99.90;;;;;;5032803;28;20052;-77
2021/12/23 02:34:01;;;;;;;22.10;13.13;;;-1.10;99.90;;;;;;5032586;28;20476;-77
2021/12/23 02:36:27;;;;;;;17.17;11.53;;;-1.10;99.90;;;;;;5032205;28;20053;-76
2021/12/23 02:38:53;;;;;;;22.87;13.00;;;-1.10;99.90;;;;;;5032282;28;20460;-75
2021/12/23 02:41:19;;;;;;;22.67;12.90;;;-1.10;99.90;;;;;;5032159;28;20311;-77
2021/12/23 02:43:45;;;;;;;25.83;12.80;;;-0.90;99.90;;;;;;5015613;28;20051;-77
2021/12/23 02:46:11;;;;;;;16.43;8.70;;;-1.10;99.90;;;;;;5015674;28;20049;-75
2021/12/23 02:48:38;;;;;;;23.57;12.87;;;-1.10;99.90;;;;;;4999241;28;20073;-77
2021/12/23 02:51:07;;;;;;;21.50;12.50;;;-1.20;99.90;;;;;;5032065;28;20069;-77
2021/12/23 02:53:34;;;;;;;18.80;11.63;;;-1.10;99.90;;;;;;5032192;28;20548;-75
2021/12/23 02:56:01;;;;;;;21.30;12.27;;;-1.20;99.90;;;;;;5031896;28;20046;-77
2021/12/23 02:58:27;;;;;;;24.90;14.23;;;-1.20;99.90;;;;;;5031802;28;20045;-76
2021/12/23 03:00:55;;;;;;;24.17;12.77;;;-1.20;99.90;;;;;;5032046;28;20550;-75
2021/12/23 03:03:21;;;;;;;20.37;11.90;;;-1.20;99.90;;;;;;5031899;28;20105;-75
2021/12/23 03:05:53;;;;;;;19.13;11.30;;;-1.20;99.90;;;;;;5031723;28;20080;-75
2021/12/23 03:08:41;;;;;;;16.90;9.43;;;-1.20;99.90;;;;;;5031662;28;20120;-75
2021/12/23 03:11:08;;;;;;;17.83;10.67;;;-1.10;99.90;;;;;;5031833;28;20045;-75
2021/12/23 03:13:35;;;;;;;20.37;12.67;;;-1.10;99.90;;;;;;5014706;28;20041;-75
2021/12/23 03:16:01;;;;;;;22.73;13.43;;;-1.10;99.90;;;;;;5031582;28;20115;-75
2021/12/23 03:18:28;;;;;;;19.07;10.63;;;-1.10;99.90;;;;;;5031527;28;20056;-76
2021/12/23 03:20:55;;;;;;;19.97;12.90;;;-1.10;99.90;;;;;;5031529;28;20049;-75
2021/12/23 03:23:21;;;;;;;23.00;13.37;;;-1.20;99.90;;;;;;5031384;28;20099;-77
2021/12/23 03:25:46;;;;;;;23.23;12.77;;;-1.20;99.90;;;;;;5031885;28;20517;-77
2021/12/23 03:28:12;;;;;;;23.50;12.93;;;-1.20;99.90;;;;;;5031400;28;20037;-76
2021/12/23 03:30:38;;;;;;;22.50;13.27;;;-1.20;99.90;;;;;;5014976;28;20407;-77
2021/12/23 03:33:05;;;;;;;20.50;13.43;;;-1.10;99.90;;;;;;5031337;28;20049;-77
2021/12/23 03:35:31;;;;;;;25.97;15.20;;;-1.10;99.90;;;;;;5031376;28;20143;-75
2021/12/23 03:37:57;;;;;;;23.03;15.40;;;-1.10;99.90;;;;;;5031261;28;20051;-75
2021/12/23 03:40:23;;;;;;;23.37;13.87;;;-1.10;99.90;;;;;;5014972;28;20399;-75
2021/12/23 03:42:49;;;;;;;19.17;11.77;;;-1.10;99.90;;;;;;5031639;28;20447;-76
2021/12/23 03:45:16;;;;;;;14.93;8.53;;;-1.10;99.90;;;;;;5031286;28;20099;-77
2021/12/23 03:47:42;;;;;;;11.93;8.23;;;-1.00;99.90;;;;;;5031287;28;20045;-75
2021/12/23 03:50:08;;;;;;;19.63;12.80;;;-1.00;99.90;;;;;;5031507;28;20503;-76
2021/12/23 03:52:34;;;;;;;17.97;9.97;;;-1.00;99.90;;;;;;5031254;28;20037;-75
2021/12/23 03:55:01;;;;;;;12.93;8.00;;;-1.00;99.90;;;;;;5031573;28;20448;-77
2021/12/23 03:57:27;;;;;;;16.37;10.43;;;-1.00;99.90;;;;;;5031557;28;20480;-75
2021/12/23 03:59:52;;;;;;;18.57;7.63;;;-1.00;99.90;;;;;;5014874;28;20053;-75
2021/12/23 04:02:18;;;;;;;19.20;11.27;;;-1.00;99.90;;;;;;5014925;28;20484;-76
2021/12/23 04:04:44;;;;;;;10.60;6.03;;;-1.00;99.90;;;;;;5014815;28;20033;-75
2021/12/23 04:07:10;;;;;;;12.87;7.53;;;-1.00;99.90;;;;;;5014937;28;20049;-77
2021/12/23 04:09:36;;;;;;;14.00;8.10;;;-0.90;99.90;;;;;;5014920;28;20452;-75
2021/12/23 04:12:02;;;;;;;11.23;6.83;;;-1.00;99.90;;;;;;5014678;28;20052;-76
2021/12/23 04:14:27;;;;;;;10.03;6.17;;;-1.00;99.90;;;;;;5031141;28;20050;-77
2021/12/23 04:16:53;;;;;;;12.30;6.60;;;-1.00;99.90;;;;;;5031044;28;20052;-76
2021/12/23 04:19:19;;;;;;;13.30;8.77;;;-1.00;99.90;;;;;;5014726;28;20042;-76
2021/12/23 04:21:45;;;;;;;13.03;7.87;;;-1.00;99.90;;;;;;4998162;28;20041;-75
2021/12/23 04:24:11;;;;;;;17.13;10.20;;;-1.00;99.90;;;;;;5031192;28;20153;-77
2021/12/23 04:26:38;;;;;;;15.07;8.40;;;-1.00;99.90;;;;;;5032430;28;20077;-77
2021/12/23 04:29:05;;;;;;;16.13;8.20;;;-1.00;99.90;;;;;;5018220;28;20045;-75
2021/12/23 04:31:33;;;;;;;11.27;7.33;;;-1.00;99.90;;;;;;5034641;28;20049;-77
2021/12/23 04:33:59;;;;;;;10.50;7.07;;;-1.00;99.90;;;;;;5034433;28;20052;-77
2021/12/23 04:36:29;;;;;;;19.30;9.30;;;-1.00;99.90;;;;;;5034542;28;20049;-76
2021/12/23 04:38:55;;;;;;;18.73;11.57;;;-1.00;99.90;;;;;;5034868;28;20056;-77
2021/12/23 04:41:21;;;;;;;20.73;12.10;;;-1.00;99.90;;;;;;5034359;28;20045;-76
2021/12/23 04:43:47;;;;;;;18.00;10.93;;;-1.00;99.90;;;;;;5034350;28;20034;-77
2021/12/23 04:46:12;;;;;;;18.00;11.10;;;-1.00;99.90;;;;;;5018231;28;20033;-75
2021/12/23 04:48:38;;;;;;;18.53;11.07;;;-1.00;99.90;;;;;;5034346;28;20045;-75
2021/12/23 04:51:05;;;;;;;16.50;9.67;;;-0.90;99.90;;;;;;5034336;28;20038;-76
2021/12/23 04:53:30;;;;;;;19.23;10.07;;;-0.90;99.90;;;;;;5034111;28;20049;-75
2021/12/23 04:55:56;;;;;;;15.70;10.00;;;-0.90;99.90;;;;;;5017661;28;20419;-75
2021/12/23 04:58:22;;;;;;;22.70;13.70;;;-0.90;99.90;;;;;;5017639;28;20104;-75
2021/12/23 05:00:50;;;;;;;19.90;11.47;;;-0.80;99.90;;;;;;5034065;28;20140;-76
2021/12/23 05:03:17;;;;;;;16.23;10.70;;;-0.80;99.90;;;;;;5017739;28;20496;-76
2021/12/23 05:05:44;;;;;;;13.97;9.03;;;-0.80;99.90;;;;;;5017471;28;20092;-77
2021/12/23 05:08:11;;;;;;;15.93;8.97;;;-0.80;99.90;;;;;;5017589;28;20431;-75
2021/12/23 05:10:37;;;;;;;17.50;8.67;;;-0.80;99.90;;;;;;5017483;28;20037;-77
2021/12/23 05:13:03;;;;;;;12.27;6.30;;;-0.70;99.90;;;;;;5033716;28;20447;-75
2021/12/23 05:15:29;;;;;;;11.50;6.53;;;-0.70;99.90;;;;;;5033870;28;20103;-75
2021/12/23 05:17:55;;;;;;;16.53;9.00;;;-0.70;94.70;;;;;;5035184;28;20048;-77
2021/12/23 05:20:22;;;;;;;14.93;7.57;;;-0.70;84.00;;;;;;5017687;28;20037;-75
2021/12/23 05:22:48;;;;;;;18.97;10.87;;;-0.60;72.90;;;;;;5034071;28;20581;-77
2021/12/23 05:25:15;;;;;;;14.27;8.17;;;-0.60;81.70;;;;;;5033779;28;20060;-77
2021/12/23 05:27:41;;;;;;;14.27;8.83;;;-0.60;75.10;;;;;;5033921;28;20550;-77
2021/12/23 05:30:11;;;;;;;14.90;7.60;;;-0.60;65.60;;;;;;5033936;28;20148;-77
2021/12/23 05:32:37;;;;;;;9.57;5.83;;;-0.50;55.80;;;;;;5033592;28;20125;-77
2021/12/23 05:35:04;;;;;;;21.87;12.47;;;-0.50;71.90;;;;;;5033699;28;20050;-76
2021/12/23 05:37:30;;;;;;;18.83;11.07;;;-0.50;72.40;;;;;;5033107;28;20053;-75
2021/12/23 05:39:56;;;;;;;19.93;11.53;;;-0.60;88.40;;;;;;5034638;28;20057;-77
2021/12/23 05:42:22;;;;;;;16.47;10.50;;;-0.60;84.10;;;;;;5033640;28;20570;-75
2021/12/23 05:44:48;;;;;;;13.73;7.77;;;-0.60;65.10;;;;;;5033570;28;20057;-75
2021/12/23 05:47:14;;;;;;;22.23;13.20;;;-0.50;40.50;;;;;;5017354;28;20049;-75
2021/12/23 05:49:39;;;;;;;13.33;8.57;;;-0.50;48.80;;;;;;5033523;28;20049;-75
2021/12/23 05:52:05;;;;;;;21.30;13.40;;;-0.50;52.60;;;;;;5033311;28;20472;-75
2021/12/23 05:54:31;;;;;;;21.73;13.53;;;-0.50;69.40;;;;;;5033327;28;20049;-76
2021/12/23 05:57:01;;;;;;;22.23;14.17;;;-0.60;90.60;;;;;;5033136;28;20419;-75
2021/12/23 05:59:31;;;;;;;21.90;13.67;;;-0.60;98.00;;;;;;5033230;28;20088;-75
2021/12/23 06:01:58;;;;;;;18.57;10.13;;;-0.60;99.20;;;;;;5017423;28;20050;-75
2021/12/23 06:04:24;;;;;;;27.57;15.23;;;-0.60;91.60;;;;;;5033165;28;20133;-76
2021/12/23 06:06:50;;;;;;;15.00;7.57;;;-0.50;98.00;;;;;;5032996;28;20045;-75
2021/12/23 06:09:16;;;;;;;22.00;13.90;;;-0.50;59.10;;;;;;5032942;28;20041;-76
2021/12/23 06:11:41;;;;;;;16.17;7.50;;;-0.40;48.80;;;;;;5032917;28;20087;-75
2021/12/23 06:14:07;;;;;;;21.77;12.20;;;-0.40;50.70;;;;;;5016450;28;20057;-76
2021/12/23 06:16:33;;;;;;;21.13;12.13;;;-0.40;68.70;;;;;;5016249;28;20056;-75
2021/12/23 06:18:59;;;;;;;24.53;13.90;;;-0.40;76.80;;;;;;5016281;28;20064;-76
2021/12/23 06:21:30;;;;;;;28.07;16.33;;;-0.40;88.00;;;;;;5000210;28;20488;-76
2021/12/23 06:23:55;;;;;;;25.00;13.50;;;-0.40;69.80;;;;;;5017265;28;20063;-75
2021/12/23 06:26:22;;;;;;;25.33;15.37;;;-0.40;83.60;;;;;;5016476;28;20128;-76
2021/12/23 06:28:48;;;;;;;25.80;15.13;;;-0.40;85.90;;;;;;5032360;28;20041;-77
2021/12/23 06:31:14;;;;;;;23.60;9.83;;;-0.50;92.80;;;;;;5032926;28;20536;-77
2021/12/23 06:33:40;;;;;;;17.70;9.47;;;-0.50;91.70;;;;;;5032717;28;20077;-77
2021/12/23 06:36:06;;;;;;;17.43;10.03;;;-0.50;92.20;;;;;;5016120;28;20045;-75
2021/12/23 06:38:32;;;;;;;16.50;9.50;;;-0.40;40.50;;;;;;5032327;28;20045;-75
2021/12/23 06:40:58;;;;;;;18.77;10.37;;;-0.40;53.00;;;;;;5032239;28;20136;-76
2021/12/23 06:43:24;;;;;;;19.07;12.10;;;-0.40;55.60;;;;;;5016050;28;20132;-75
2021/12/23 06:45:49;;;;;;;18.80;10.27;;;-0.40;71.60;;;;;;5032360;28;20096;-75
2021/12/23 06:48:15;;;;;;;23.37;13.50;;;-0.40;54.30;;;;;;5031696;28;20042;-77
2021/12/23 06:50:42;;;;;;;23.80;12.53;;;-0.40;58.40;;;;;;5031738;28;20450;-76
2021/12/23 06:53:08;;;;;;;24.73;15.40;;;-0.40;48.20;;;;;;5015577;28;20048;-77
2021/12/23 06:55:34;;;;;;;27.07;16.17;;;-0.40;55.50;;;;;;5032049;28;20135;-77
2021/12/23 06:58:00;;;;;;;18.20;10.90;;;-0.30;45.80;;;;;;5032327;28;20129;-75
2021/12/23 07:00:28;;;;;;;23.40;11.77;;;-0.30;29.20;;;;;;5032094;28;20080;-75
2021/12/23 07:02:55;;;;;;;22.47;13.03;;;-0.40;18.10;;;;;;5015726;28;20514;-76
2021/12/23 07:05:22;;;;;;;21.77;12.20;;;-0.40;40.90;;;;;;5015951;28;20475;-76
2021/12/23 07:08:49;;;;;;;18.50;10.77;;;-0.40;42.70;;;;;;5032076;28;20053;-76
2021/12/23 07:10:43;;;;;;;22.57;13.67;;;-0.40;33.20;;;;;;5018941;28;20051;-75
2021/12/23 07:13:09;;;;;;;20.17;11.40;;;-0.40;72.80;;;;;;5015270;28;20049;-77
2021/12/23 07:15:36;;;;;;;17.50;9.73;;;-0.40;74.10;;;;;;5015272;28;20049;-77
2021/12/23 07:18:02;;;;;;;15.50;9.80;;;-0.40;72.40;;;;;;5015300;28;20049;-77
2021/12/23 07:20:28;;;;;;;18.73;10.97;;;-0.40;90.20;;;;;;5031735;28;20052;-76
2021/12/23 07:22:55;;;;;;;20.57;11.33;;;-0.40;66.00;;;;;;5031930;28;20052;-77
2021/12/23 07:25:21;;;;;;;18.33;8.20;;;-0.40;60.40;;;;;;5015162;28;20058;-75
2021/12/23 07:27:47;;;;;;;19.67;10.50;;;-0.40;48.80;;;;;;5030276;28;20041;-77
2021/12/23 07:30:16;;;;;;;18.23;11.50;;;-0.40;71.00;;;;;;5031168;28;20069;-75
2021/12/23 07:32:42;;;;;;;25.53;13.73;;;-0.50;60.00;;;;;;5014732;28;20057;-76
2021/12/23 07:35:09;;;;;;;11.63;6.93;;;-0.40;68.90;;;;;;5031270;28;20053;-77
2021/12/23 07:37:36;;;;;;;23.93;15.27;;;-0.40;69.40;;;;;;5047332;28;20045;-75
2021/12/23 07:40:04;;;;;;;22.00;13.70;;;-0.50;88.70;;;;;;5031261;28;20160;-77
2021/12/23 07:42:32;;;;;;;24.03;15.00;;;-0.50;91.50;;;;;;5031128;28;20088;-75
2021/12/23 07:44:58;;;;;;;22.47;13.47;;;-0.50;95.60;;;;;;5031937;28;20053;-76
2021/12/23 07:47:24;;;;;;;17.20;8.80;;;-0.50;96.80;;;;;;5048060;28;20053;-75
2021/12/23 07:49:50;;;;;;;19.23;10.67;;;-0.50;92.20;;;;;;5031846;28;20269;-77
2021/12/23 07:52:16;;;;;;;22.93;13.27;;;-0.50;94.60;;;;;;5048228;28;20046;-75
2021/12/23 07:54:42;;;;;;;26.93;16.20;;;-0.50;96.30;;;;;;5031628;28;20500;-77
2021/12/23 07:57:07;;;;;;;20.37;11.33;;;-0.50;99.90;;;;;;5047890;28;20085;-77
2021/12/23 07:59:33;;;;;;;18.63;9.00;;;-0.50;99.90;;;;;;4998742;28;20041;-77
2021/12/23 08:01:59;;;;;;;23.47;13.43;;;-0.50;99.90;;;;;;5051998;28;20450;-75
2021/12/23 08:04:26;;;;;;;18.63;9.40;;;-0.50;99.90;;;;;;5052295;28;20050;-76
2021/12/23 08:06:55;;;;;;;19.30;10.73;;;-0.50;99.90;;;;;;5052033;28;20045;-77
2021/12/23 08:09:22;;;;;;;22.90;13.00;;;-0.50;99.90;;;;;;5035607;28;20088;-77
2021/12/23 08:11:49;;;;;;;27.57;14.07;;;-0.50;99.90;;;;;;5051781;28;20057;-75
2021/12/23 08:14:15;;;;;;;20.93;12.10;;;-0.50;99.90;;;;;;5051801;28;20061;-75
2021/12/23 08:16:42;;;;;;;25.07;14.93;;;-0.50;99.90;;;;;;5035078;28;20488;-75
2021/12/23 08:19:09;;;;;;;22.30;12.30;;;-0.50;99.90;;;;;;5051470;28;20057;-76
2021/12/23 08:21:35;;;;;;;26.90;13.50;;;-0.50;99.90;;;;;;5035211;28;20503;-75
2021/12/23 08:24:00;;;;;;;20.87;11.37;;;-0.50;99.90;;;;;;5034803;28;20041;-77
2021/12/23 08:26:29;;;;;;;24.80;13.00;;;-0.50;99.90;;;;;;5035132;28;20061;-77
2021/12/23 08:28:56;;;;;;;19.10;10.37;;;-0.60;99.90;;;;;;5034768;28;20049;-77
2021/12/23 08:31:26;;;;;;;21.83;12.17;;;-0.50;99.90;;;;;;5051319;28;20037;-75
2021/12/23 08:33:52;;;;;;;28.83;17.37;;;-0.60;99.90;;;;;;5051777;28;20049;-77
2021/12/23 08:36:20;;;;;;;26.43;15.73;;;-0.60;99.90;;;;;;5051448;28;20055;-76
2021/12/23 08:38:45;;;;;;;23.17;13.13;;;-0.60;99.90;;;;;;5018351;28;20095;-77
2021/12/23 08:41:11;;;;;;;22.23;11.07;;;-0.60;99.90;;;;;;5034452;28;20439;-76
2021/12/23 08:43:37;;;;;;;22.30;12.43;;;-0.60;99.90;;;;;;5051130;28;20045;-77
2021/12/23 08:46:03;;;;;;;26.67;16.30;;;-0.60;99.90;;;;;;5051162;28;20084;-76
2021/12/23 08:48:29;;;;;;;25.70;14.87;;;-0.60;99.90;;;;;;5034342;28;20049;-75
2021/12/23 08:50:55;;;;;;;22.67;14.13;;;-0.60;99.90;;;;;;5050251;28;20056;-77
2021/12/23 08:53:21;;;;;;;16.07;10.00;;;-0.60;99.90;;;;;;5018111;28;20488;-75
2021/12/23 08:55:47;;;;;;;22.97;12.63;;;-0.60;99.90;;;;;;5017484;28;20033;-77
2021/12/23 08:58:13;;;;;;;28.67;15.60;;;-0.60;99.90;;;;;;5017758;28;20048;-76
2021/12/23 09:00:40;;;;;;;28.23;17.50;;;-0.50;99.90;;;;;;5033415;28;20061;-75
2021/12/23 09:03:07;;;;;;;25.70;13.97;;;-0.60;99.90;;;;;;5033199;28;20120;-77
2021/12/23 09:05:36;;;;;;;27.40;16.47;;;-0.50;99.90;;;;;;5017572;28;20053;-75
2021/12/23 09:08:05;;;;;;;39.73;24.47;;;-0.50;99.90;;;;;;5050120;28;20045;-77
2021/12/23 09:10:31;;;;;;;35.23;19.80;;;-0.50;99.90;;;;;;5033259;28;20048;-75
2021/12/23 09:12:57;;;;;;;39.53;21.63;;;-0.50;99.90;;;;;;5033180;28;20393;-77
2021/12/23 09:15:22;;;;;;;23.57;13.83;;;-0.50;99.90;;;;;;5000575;28;20053;-75
2021/12/23 09:17:48;;;;;;;21.47;12.50;;;-0.50;99.90;;;;;;5016214;28;20056;-76
2021/12/23 09:20:17;;;;;;;36.20;19.60;;;-0.50;99.90;;;;;;5033293;28;20037;-77
2021/12/23 09:22:43;;;;;;;26.63;17.20;;;-0.50;99.90;;;;;;5033501;28;20099;-77
2021/12/23 09:25:18;;;;;;;27.10;17.10;;;-0.50;99.90;;;;;;5016975;28;20099;-76
2021/12/23 09:27:58;;;;;;;28.20;17.90;;;-0.50;99.90;;;;;;5017925;28;20499;-77
2021/12/23 09:33:09;;;;;;;21.73;11.20;;;-0.50;99.90;;;;;;5049771;28;20041;-75
2021/12/23 09:35:37;;;;;;;37.07;22.23;;;-0.50;99.90;;;;;;5049606;28;20059;-77
2021/12/23 09:38:03;;;;;;;26.53;13.67;;;-0.50;99.90;;;;;;5033204;28;20048;-77
2021/12/23 09:40:32;;;;;;;41.00;22.23;;;-0.50;99.90;;;;;;5033847;28;20412;-76
2021/12/23 09:43:03;;;;;;;41.27;23.90;;;-0.60;99.90;;;;;;5050099;28;20096;-76
2021/12/23 09:45:29;;;;;;;44.23;26.70;;;-0.60;99.90;;;;;;5050430;28;20511;-77
2021/12/23 09:47:56;;;;;;;38.47;20.63;;;-0.60;99.90;;;;;;5033692;28;20468;-76
2021/12/23 09:50:25;;;;;;;34.43;17.50;;;-0.50;99.90;;;;;;5050171;28;20089;-78
2021/12/23 09:52:53;;;;;;;34.50;18.30;;;-0.60;99.90;;;;;;5050144;28;20037;-78
2021/12/23 09:55:23;;;;;;;46.27;24.40;;;-0.50;99.90;;;;;;5049989;28;20488;-78
2021/12/23 09:57:50;;;;;;;44.23;24.77;;;-0.60;99.90;;;;;;5049699;28;20038;-78
2021/12/23 10:00:19;;;;;;;47.60;25.70;;;-0.60;99.90;;;;;;5033470;28;20488;-76
2021/12/23 10:02:45;;;;;;;50.60;25.73;;;-0.50;99.90;;;;;;5049693;28;20084;-78
2021/12/23 10:05:13;;;;;;;41.07;22.57;;;-0.50;99.90;;;;;;5016518;28;20048;-76
2021/12/23 10:07:41;;;;;;;33.27;16.67;;;-0.50;99.90;;;;;;5032809;28;20045;-76
2021/12/23 10:38:09;;;;;;;60.00;30.87;;;-0.50;99.90;;;;;;5035729;28;20103;-76
2021/12/23 10:40:36;;;;;;;43.57;19.17;;;-0.50;99.90;;;;;;5032135;28;20045;-77
2021/12/23 10:43:02;;;;;;;51.60;26.97;;;-0.50;99.90;;;;;;5032021;28;20057;-77
2021/12/23 10:45:49;;;;;;;36.77;18.57;;;-0.50;99.90;;;;;;5032199;28;20124;-78
2021/12/23 10:48:16;;;;;;;52.10;27.70;;;-0.50;99.90;;;;;;5048556;28;20049;-76
2021/12/23 10:50:46;;;;;;;32.37;16.30;;;-0.50;99.90;;;;;;4999404;28;20041;-77
2021/12/23 10:59:03;;;;;;;48.03;22.37;;;-0.50;99.90;;;;;;5032179;28;20507;-78
2021/12/23 11:01:30;;;;;;;34.33;17.03;;;-0.50;99.90;;;;;;5031750;28;20134;-78
2021/12/23 11:04:07;;;;;;;40.13;17.97;;;-0.50;99.90;;;;;;5032065;28;20053;-78
2021/12/23 11:06:46;;;;;;;35.43;18.13;;;-0.40;99.90;;;;;;5032264;28;20466;-77
2021/12/23 11:27:23;;;;;;;38.37;19.57;;;-0.40;99.90;;;;;;5031757;28;20088;-78
2021/12/23 11:30:05;;;;;;;47.80;22.27;;;-0.40;99.90;;;;;;5050083;28;20053;-78
2021/12/23 11:37:53;;;;;;;75.33;35.73;;;-0.40;99.90;;;;;;5022934;28;20068;-78
2021/12/23 11:40:37;;;;;;;53.27;25.90;;;-0.30;99.90;;;;;;5037804;28;20441;-77
2021/12/23 11:45:31;;;;;;;86.57;39.00;;;-0.30;99.90;;;;;;5014182;28;20132;-78
2021/12/23 11:47:58;;;;;;;39.47;16.87;;;-0.30;99.90;;;;;;5030852;28;20140;-77
2021/12/23 11:50:31;;;;;;;51.73;24.40;;;-0.30;99.90;;;;;;5031297;28;20041;-77
2021/12/23 11:52:57;;;;;;;70.13;33.53;;;-0.30;99.90;;;;;;5031377;28;20128;-79
2021/12/23 11:55:23;;;;;;;62.60;28.23;;;-0.30;99.90;;;;;;5030852;28;20053;-77
2021/12/23 11:57:51;;;;;;;61.03;27.53;;;-0.30;99.90;;;;;;5015096;28;20400;-77
2021/12/23 12:00:21;;;;;;;66.93;30.60;;;-0.30;99.90;;;;;;5047583;28;20124;-79
2021/12/23 12:03:02;;;;;;;63.57;29.17;;;-0.30;99.90;;;;;;5047000;28;20492;-77
2021/12/23 12:05:28;;;;;;;64.70;29.47;;;-0.20;99.90;;;;;;5027736;28;20115;-77
2021/12/23 12:08:15;;;;;;;66.37;32.53;;;-0.30;99.90;;;;;;5023000;28;20043;-79
2021/12/23 12:10:42;;;;;;;62.63;30.80;;;-0.20;99.90;;;;;;5047718;28;20128;-77
2021/12/23 12:13:13;;;;;;;69.27;31.40;;;-0.20;99.90;;;;;;5030471;28;20435;-78
2021/12/23 12:15:39;;;;;;;56.50;26.50;;;-0.20;99.90;;;;;;5030428;28;20412;-77
2021/12/23 12:18:08;;;;;;;64.67;30.30;;;-0.20;99.90;;;;;;5030836;28;20038;-77
2021/12/23 12:20:38;;;;;;;46.47;23.50;;;-0.20;99.90;;;;;;5030211;28;20064;-77
2021/12/23 12:23:11;;;;;;;79.20;35.30;;;-0.20;99.90;;;;;;5014911;28;20463;-79
2021/12/23 12:25:52;;;;;;;56.75;26.17;;;-0.20;99.90;;;;;;5030426;28;20037;-77
2021/12/23 12:28:23;;;;;;;81.07;33.83;;;-0.20;99.90;;;;;;5047259;28;20049;-79
2021/12/23 12:30:52;;;;;;;58.90;29.10;;;-0.20;99.90;;;;;;5030501;28;20047;-79
2021/12/23 12:33:18;;;;;;;37.27;18.67;;;-0.10;99.90;;;;;;5030174;28;20049;-80
2021/12/23 12:35:49;;;;;;;70.27;34.57;;;-0.20;99.90;;;;;;5030563;28;20052;-78
2021/12/23 12:38:24;;;;;;;78.27;37.87;;;-0.10;99.90;;;;;;5047476;28;20183;-79
2021/12/23 12:41:09;;;;;;;80.23;34.47;;;-0.10;99.90;;;;;;5047606;28;20125;-79
2021/12/23 12:46:12;;;;;;;67.83;31.97;;;-0.10;99.90;;;;;;5031032;28;20049;-78
2021/12/23 12:49:27;;;;;;;90.57;40.20;;;-0.10;99.90;;;;;;5033819;28;20041;-79
2021/12/23 12:52:12;;;;;;;55.70;22.73;;;-0.10;99.90;;;;;;5013696;28;20050;-78
2021/12/23 12:54:47;;;;;;;73.67;32.97;;;-0.10;99.90;;;;;;5034225;28;20310;-79
2021/12/23 12:57:13;;;;;;;97.80;41.30;;;-0.10;99.90;;;;;;5034379;28;20489;-78
2021/12/23 12:59:44;;;;;;;67.77;33.80;;;-0.10;99.90;;;;;;5051296;28;20042;-78
2021/12/23 13:02:28;;;;;;;81.40;35.43;;;-0.10;99.90;;;;;;5034166;28;20118;-80
2021/12/23 13:05:04;;;;;;;57.10;24.48;;;-0.10;99.90;;;;;;5034350;28;20110;-79
2021/12/23 13:07:35;;;;;;;62.37;27.00;;;-0.10;99.90;;;;;;5034822;28;20423;-78
2021/12/23 13:10:11;;;;;;;56.43;24.43;;;-0.10;99.90;;;;;;5051192;28;20057;-78
2021/12/23 13:12:51;;;;;;;64.87;30.83;;;-0.10;99.90;;;;;;5034390;28;20492;-80
2021/12/23 13:15:30;;;;;;;74.13;33.10;;;-0.10;99.90;;;;;;5050572;28;20088;-79
2021/12/23 13:18:22;;;;;;;66.17;28.30;;;-0.10;99.90;;;;;;5017741;28;20500;-78
2021/12/23 13:20:54;;;;;;;70.03;31.17;;;-0.10;99.90;;;;;;5031996;28;20140;-78
2021/12/23 13:23:29;;;;;;;50.40;24.17;;;-0.10;99.90;;;;;;5017734;28;20551;-79
2021/12/23 13:25:58;;;;;;;70.40;31.13;;;-0.10;99.90;;;;;;5016787;28;20124;-80
2021/12/23 13:28:31;;;;;;;87.53;38.97;;;-0.10;99.90;;;;;;5030176;28;20046;-79
2021/12/23 13:30:58;;;;;;;76.00;34.07;;;-0.10;99.90;;;;;;5049962;28;20098;-79
2021/12/23 13:33:24;;;;;;;82.40;34.37;;;-0.10;99.90;;;;;;5000407;28;20058;-80
2021/12/23 13:35:51;;;;;;;85.17;33.87;;;-0.10;99.90;;;;;;5016879;28;20050;-79
2021/12/23 13:38:28;;;;;;;104.63;39.37;;;-0.10;99.90;;;;;;5016692;28;20042;-79
2021/12/23 13:40:54;;;;;;;85.23;34.17;;;-0.10;99.90;;;;;;5033171;28;20480;-79
2021/12/23 13:43:31;;;;;;;99.07;38.77;;;-0.10;99.90;;;;;;5032840;28;20089;-79
2021/12/23 13:46:08;;;;;;;84.73;36.73;;;-0.10;99.90;;;;;;5033085;28;20053;-80